createdAt,value
2023-06-12T00:01:32.388Z,14.93
2023-06-12T00:04:01.376Z,14.89
2023-06-12T00:06:29.642Z,15.03
2023-06-12T00:08:59.324Z,15.03
2023-06-12T00:11:28.472Z,14.97
2023-06-12T00:13:56.464Z,14.94
2023-06-12T00:16:25.317Z,14.80
2023-06-12T00:18:55.658Z,14.86
2023-06-12T00:21:24.260Z,15.03
2023-06-12T00:23:53.132Z,14.81
2023-06-12T00:26:21.175Z,14.71
2023-06-12T00:28:49.835Z,14.67
2023-06-12T00:31:18.740Z,14.82
2023-06-12T00:33:47.303Z,14.93
2023-06-12T00:36:18.733Z,14.84
2023-06-12T00:38:46.995Z,14.83
2023-06-12T00:41:14.998Z,14.77
2023-06-12T00:43:43.112Z,14.40
2023-06-12T00:46:12.914Z,14.41
2023-06-12T00:48:42.950Z,14.22
2023-06-12T00:51:10.708Z,14.16
2023-06-12T00:53:41.023Z,14.18
2023-06-12T00:56:09.285Z,14.07
2023-06-12T00:58:38.220Z,14.15
2023-06-12T01:01:06.265Z,14.22
2023-06-12T01:03:34.542Z,14.35
2023-06-12T01:06:10.659Z,14.06
2023-06-12T01:09:04.936Z,14.21
2023-06-12T01:11:35.571Z,14.28
2023-06-12T01:14:04.109Z,13.83
2023-06-12T01:16:32.648Z,13.90
2023-06-12T01:19:02.212Z,13.96
2023-06-12T01:21:34.073Z,13.86
2023-06-12T01:24:22.686Z,13.89
2023-06-12T01:27:13.936Z,13.90
2023-06-12T01:29:55.376Z,13.91
2023-06-12T01:32:25.933Z,13.87
2023-06-12T01:34:59.209Z,13.98
2023-06-12T01:37:36.251Z,13.96
2023-06-12T01:40:11.171Z,13.80
2023-06-12T01:42:41.010Z,13.79
2023-06-12T01:45:10.320Z,13.74
2023-06-12T01:47:39.857Z,13.73
2023-06-12T01:50:10.660Z,13.76
2023-06-12T01:52:41.499Z,13.74
2023-06-12T01:55:11.085Z,13.59
2023-06-12T01:57:40.021Z,13.77
2023-06-12T02:00:12.164Z,13.63
2023-06-12T02:02:54.725Z,13.36
2023-06-12T02:05:27.925Z,13.12
2023-06-12T02:07:56.145Z,13.34
2023-06-12T02:10:26.592Z,13.27
2023-06-12T02:12:55.233Z,13.29
2023-06-12T02:15:23.488Z,13.39
2023-06-12T02:17:53.817Z,13.30
2023-06-12T02:20:21.634Z,13.24
2023-06-12T02:22:49.630Z,13.28
2023-06-12T02:25:19.817Z,13.25
2023-06-12T02:27:48.785Z,13.15
2023-06-12T02:30:17.106Z,13.20
2023-06-12T02:32:45.573Z,13.23
2023-06-12T02:35:16.298Z,13.41
2023-06-12T02:37:45.838Z,13.35
2023-06-12T02:40:15.032Z,13.33
2023-06-12T02:42:43.816Z,13.59
2023-06-12T02:45:13.886Z,13.44
2023-06-12T02:47:42.474Z,13.35
2023-06-12T02:50:11.977Z,13.21
2023-06-12T02:52:51.690Z,13.32
2023-06-12T02:55:20.406Z,13.53
2023-06-12T02:57:49.442Z,13.59
2023-06-12T03:00:18.183Z,13.47
2023-06-12T03:02:48.643Z,13.46
2023-06-12T03:05:18.898Z,13.28
2023-06-12T03:07:47.108Z,13.29
2023-06-12T03:10:20.107Z,13.23
2023-06-12T03:12:48.176Z,13.21
2023-06-12T03:15:17.877Z,13.16
2023-06-12T03:17:46.495Z,13.11
2023-06-12T03:20:15.684Z,13.13
2023-06-12T03:22:44.329Z,13.23
2023-06-12T03:25:13.109Z,13.45
2023-06-12T03:27:42.854Z,13.55
2023-06-12T03:30:12.044Z,13.59
2023-06-12T03:32:40.548Z,13.62
2023-06-12T03:35:10.573Z,13.54
2023-06-12T03:37:42.571Z,13.56
2023-06-12T03:40:13.974Z,13.56
2023-06-12T03:42:46.225Z,13.48
2023-06-12T03:45:14.239Z,13.60
2023-06-12T03:47:42.451Z,13.65
2023-06-12T03:50:13.905Z,13.59
2023-06-12T03:52:42.274Z,13.42
2023-06-12T03:55:11.070Z,13.65
2023-06-12T03:57:39.873Z,13.69
2023-06-12T04:00:13.873Z,13.82
2023-06-12T04:02:51.699Z,13.93
2023-06-12T04:05:22.141Z,13.97
2023-06-12T04:07:51.676Z,13.91
2023-06-12T04:10:20.220Z,14.07
2023-06-12T04:12:49.011Z,14.05
2023-06-12T04:15:18.832Z,13.92
2023-06-12T04:17:46.691Z,14.12
2023-06-12T04:20:15.448Z,14.24
2023-06-12T04:22:44.090Z,14.42
2023-06-12T04:25:12.583Z,14.59
2023-06-12T04:27:44.032Z,14.66
2023-06-12T04:30:17.189Z,14.77
2023-06-12T04:32:47.110Z,14.84
2023-06-12T04:35:18.099Z,15.06
2023-06-12T04:37:49.250Z,14.97
2023-06-12T04:40:18.847Z,15.10
2023-06-12T04:42:48.008Z,15.25
2023-06-12T04:45:19.982Z,15.50
2023-06-12T04:47:51.570Z,15.62
2023-06-12T04:50:20.893Z,15.76
2023-06-12T04:52:49.893Z,15.80
2023-06-12T04:55:21.618Z,15.77
2023-06-12T04:57:53.618Z,15.82
2023-06-12T05:00:25.686Z,15.86
2023-06-12T05:02:55.742Z,15.86
2023-06-12T05:05:24.213Z,15.78
2023-06-12T05:07:52.894Z,15.92
2023-06-12T05:10:21.983Z,16.09
2023-06-12T05:12:50.194Z,16.27
2023-06-12T05:15:18.686Z,16.35
2023-06-12T05:17:47.306Z,16.36
2023-06-12T05:20:16.983Z,16.47
2023-06-12T05:22:46.260Z,16.68
2023-06-12T05:25:14.678Z,16.88
2023-06-12T05:27:42.725Z,16.80
2023-06-12T05:30:12.221Z,17.00
2023-06-12T05:32:40.515Z,17.19
2023-06-12T05:35:10.604Z,17.19
2023-06-12T05:37:40.960Z,17.23
2023-06-12T05:40:10.495Z,17.35
2023-06-12T05:42:40.214Z,17.52
2023-06-12T05:45:10.734Z,17.65
2023-06-12T05:47:38.906Z,17.66
2023-06-12T05:50:10.394Z,17.52
2023-06-12T05:52:40.384Z,17.64
2023-06-12T05:55:12.429Z,17.67
2023-06-12T05:57:41.894Z,17.81
2023-06-12T06:00:12.437Z,18.00
2023-06-12T06:02:45.624Z,18.21
2023-06-12T06:05:28.142Z,18.06
2023-06-12T06:07:57.432Z,18.25
2023-06-12T06:10:28.499Z,18.52
2023-06-12T06:12:56.566Z,18.64
2023-06-12T06:15:24.570Z,18.76
2023-06-12T06:17:55.050Z,18.78
2023-06-12T06:20:23.104Z,18.94
2023-06-12T06:22:53.179Z,19.03
2023-06-12T06:25:21.741Z,19.05
2023-06-12T06:27:51.932Z,19.27
2023-06-12T06:30:20.604Z,19.33
2023-06-12T06:32:48.579Z,19.42
2023-06-12T06:35:17.264Z,19.49
2023-06-12T06:37:46.187Z,19.67
2023-06-12T06:40:16.277Z,19.82
2023-06-12T06:42:44.973Z,19.98
2023-06-12T06:45:15.958Z,19.98
2023-06-12T06:47:45.226Z,20.09
2023-06-12T06:50:14.308Z,20.12
2023-06-12T06:52:43.635Z,20.03
2023-06-12T06:55:13.875Z,20.07
2023-06-12T06:57:44.999Z,20.14
2023-06-12T07:00:16.291Z,20.38
2023-06-12T07:02:46.694Z,20.44
2023-06-12T07:05:18.110Z,20.54
2023-06-12T07:08:01.009Z,20.61
2023-06-12T07:10:31.837Z,20.72
2023-06-12T07:13:00.293Z,20.93
2023-06-12T07:15:36.661Z,21.11
2023-06-12T07:18:05.814Z,21.23
2023-06-12T07:20:33.860Z,21.34
2023-06-12T07:23:01.872Z,21.35
2023-06-12T07:25:30.701Z,21.52
2023-06-12T07:27:59.538Z,21.58
2023-06-12T07:30:27.879Z,21.70
2023-06-12T07:32:58.619Z,21.94
2023-06-12T07:35:26.814Z,22.08
2023-06-12T07:37:54.995Z,22.13
2023-06-12T07:40:23.855Z,22.28
2023-06-12T07:42:51.912Z,22.28
2023-06-12T07:45:22.128Z,22.36
2023-06-12T07:47:53.447Z,22.49
2023-06-12T07:50:27.467Z,22.58
2023-06-12T07:52:57.244Z,22.74
2023-06-12T07:55:25.825Z,22.83
2023-06-12T07:57:55.770Z,23.06
2023-06-12T08:00:25.961Z,23.11
2023-06-12T08:02:59.907Z,23.36
2023-06-12T08:05:37.471Z,23.45
2023-06-12T08:08:13.700Z,23.53
2023-06-12T08:10:43.709Z,23.57
2023-06-12T08:13:14.011Z,23.79
2023-06-12T08:15:42.537Z,23.96
2023-06-12T08:18:13.404Z,23.91
2023-06-12T08:20:44.122Z,23.90
2023-06-12T08:23:12.164Z,23.94
2023-06-12T08:25:40.750Z,24.20
2023-06-12T08:28:10.206Z,24.34
2023-06-12T08:30:38.840Z,24.45
2023-06-12T08:33:07.173Z,24.62
2023-06-12T08:35:37.318Z,24.77
2023-06-12T08:38:06.769Z,24.90
2023-06-12T08:40:35.941Z,24.85
2023-06-12T08:43:04.319Z,24.91
2023-06-12T08:45:34.867Z,24.76
2023-06-12T08:48:07.213Z,25.03
2023-06-12T08:50:36.102Z,25.18
2023-06-12T08:53:08.294Z,25.37
2023-06-12T08:55:40.789Z,25.53
2023-06-12T08:58:10.190Z,25.43
2023-06-12T09:00:38.205Z,25.51
2023-06-12T09:03:07.530Z,25.36
2023-06-12T09:05:39.155Z,25.43
2023-06-12T09:08:08.910Z,25.51
2023-06-12T09:10:40.279Z,25.65
2023-06-12T09:13:09.517Z,25.87
2023-06-12T09:15:41.602Z,26.01
2023-06-12T09:18:12.685Z,26.15
2023-06-12T09:20:43.531Z,26.05
2023-06-12T09:23:15.124Z,26.27
2023-06-12T09:25:55.391Z,25.96
2023-06-12T09:28:39.053Z,25.97
2023-06-12T09:31:07.363Z,25.98
2023-06-12T09:33:37.020Z,26.00
2023-06-12T09:36:06.514Z,25.98
2023-06-12T09:38:37.462Z,25.90
2023-06-12T09:41:08.032Z,25.90
2023-06-12T09:43:36.430Z,25.81
2023-06-12T09:46:06.229Z,25.73
2023-06-12T09:48:36.380Z,26.05
2023-06-12T09:51:07.882Z,26.06
2023-06-12T09:53:42.036Z,26.05
2023-06-12T09:56:11.702Z,26.06
2023-06-12T09:58:41.004Z,26.12
2023-06-12T10:01:10.151Z,26.05
2023-06-12T10:03:39.906Z,26.11
2023-06-12T10:06:11.100Z,26.10
2023-06-12T10:08:41.950Z,26.15
2023-06-12T10:11:12.133Z,25.99
2023-06-12T10:13:40.962Z,26.40
2023-06-12T10:16:10.605Z,26.42
2023-06-12T10:18:39.660Z,26.22
2023-06-12T10:21:08.649Z,26.19
2023-06-12T10:23:39.044Z,25.82
2023-06-12T10:26:10.840Z,25.73
2023-06-12T10:28:39.034Z,25.72
2023-06-12T10:31:12.610Z,25.90
2023-06-12T10:33:40.945Z,25.99
2023-06-12T10:36:14.081Z,26.36
2023-06-12T10:38:50.040Z,26.21
2023-06-12T10:41:33.887Z,26.12
2023-06-12T10:44:01.942Z,26.06
2023-06-12T10:46:49.456Z,26.08
2023-06-12T10:49:19.804Z,26.13
2023-06-12T10:51:53.755Z,26.12
2023-06-12T10:54:27.509Z,26.00
2023-06-12T10:57:04.547Z,26.29
2023-06-12T10:59:36.234Z,26.39
2023-06-12T11:02:05.900Z,26.17
2023-06-12T11:04:38.993Z,26.33
2023-06-12T11:07:08.731Z,26.35
2023-06-12T11:09:41.495Z,26.55
2023-06-12T11:12:12.064Z,26.73
2023-06-12T11:14:40.110Z,26.74
2023-06-12T11:17:08.269Z,26.83
2023-06-12T11:19:37.329Z,26.76
2023-06-12T11:22:05.744Z,26.55
2023-06-12T11:24:34.346Z,26.65
2023-06-12T11:27:04.382Z,26.56
2023-06-12T11:29:48.637Z,26.79
2023-06-12T11:32:25.614Z,26.52
2023-06-12T11:34:54.123Z,26.59
2023-06-12T11:37:26.770Z,26.74
2023-06-12T11:40:01.394Z,26.95
2023-06-12T11:42:29.969Z,27.00
2023-06-12T11:44:59.411Z,26.95
2023-06-12T11:49:59.816Z,27.11
2023-06-12T11:52:27.956Z,27.39
2023-06-12T11:57:32.267Z,27.48
2023-06-12T12:00:02.120Z,27.31
2023-06-12T12:02:41.124Z,27.43
2023-06-12T12:05:12.230Z,27.55
2023-06-12T12:07:41.771Z,27.39
2023-06-12T12:10:12.546Z,27.17
2023-06-12T12:12:47.023Z,27.27
2023-06-12T12:15:17.123Z,27.32
2023-06-12T12:17:49.820Z,27.70
2023-06-12T12:20:22.260Z,27.92
2023-06-12T12:22:52.381Z,28.33
2023-06-12T12:25:22.765Z,28.58
2023-06-12T12:27:52.843Z,28.57
2023-06-12T12:30:23.456Z,29.40
2023-06-12T12:32:54.440Z,29.46
2023-06-12T12:35:23.955Z,29.34
2023-06-12T12:37:52.940Z,30.12
2023-06-12T12:40:25.217Z,31.03
2023-06-12T12:42:55.794Z,30.70
2023-06-12T12:45:29.019Z,30.84
2023-06-12T12:47:57.315Z,30.63
2023-06-12T12:50:28.695Z,29.66
2023-06-12T12:52:58.792Z,29.99
2023-06-12T12:55:26.919Z,30.44
2023-06-12T12:58:05.987Z,31.15
2023-06-12T13:00:47.907Z,31.58
2023-06-12T13:03:18.000Z,32.05
2023-06-12T13:05:46.710Z,31.46
2023-06-12T13:08:15.120Z,32.81
2023-06-12T13:10:44.334Z,31.32
2023-06-12T13:13:15.509Z,33.04
2023-06-12T13:15:46.494Z,33.30
2023-06-12T13:18:15.856Z,32.43
2023-06-12T13:20:44.270Z,31.15
2023-06-12T13:23:12.298Z,32.10
2023-06-12T13:25:41.260Z,32.08
2023-06-12T13:28:09.237Z,32.34
2023-06-12T13:30:37.204Z,33.07
2023-06-12T13:33:07.836Z,33.28
2023-06-12T13:35:39.378Z,32.19
2023-06-12T13:38:07.987Z,32.24
2023-06-12T13:40:36.485Z,31.66
2023-06-12T13:43:04.558Z,32.08
2023-06-12T13:45:33.675Z,32.38
2023-06-12T13:48:03.969Z,31.92
2023-06-12T13:50:34.813Z,32.23
2023-06-12T13:53:03.238Z,32.51
2023-06-12T13:55:31.391Z,32.69
2023-06-12T13:58:01.077Z,32.45
2023-06-12T14:00:29.989Z,33.92
2023-06-12T14:02:58.480Z,33.49
2023-06-12T14:05:26.602Z,32.96
2023-06-12T14:07:56.145Z,33.30
2023-06-12T14:10:26.252Z,33.34
2023-06-12T14:12:55.397Z,33.08
2023-06-12T14:15:24.019Z,31.59
2023-06-12T14:17:53.250Z,34.26
2023-06-12T14:20:21.320Z,34.15
2023-06-12T14:22:49.310Z,33.75
2023-06-12T14:25:19.235Z,32.07
2023-06-12T14:27:47.570Z,33.44
2023-06-12T14:30:15.681Z,33.98
2023-06-12T14:32:43.705Z,33.53
2023-06-12T14:35:11.986Z,33.03
2023-06-12T14:37:40.815Z,32.77
2023-06-12T14:40:09.854Z,33.71
2023-06-12T14:42:40.120Z,34.56
2023-06-12T14:45:09.260Z,34.89
2023-06-12T14:47:37.268Z,32.46
2023-06-12T14:50:06.790Z,34.27
2023-06-12T14:52:34.827Z,31.96
2023-06-12T14:55:03.919Z,34.03
2023-06-12T14:57:33.041Z,33.09
2023-06-12T15:00:02.410Z,34.10
2023-06-12T15:02:31.351Z,34.99
2023-06-12T15:04:59.454Z,36.35
2023-06-12T15:07:28.010Z,34.99
2023-06-12T15:09:56.086Z,35.20
2023-06-12T15:12:24.012Z,34.93
2023-06-12T15:14:54.246Z,32.79
2023-06-12T15:17:23.679Z,33.03
2023-06-12T15:19:53.731Z,33.37
2023-06-12T15:22:22.724Z,32.18
2023-06-12T15:24:50.762Z,34.21
2023-06-12T15:27:19.651Z,33.92
2023-06-12T15:29:47.626Z,34.16
2023-06-12T15:32:16.017Z,34.28
2023-06-12T15:34:46.582Z,34.79
2023-06-12T15:37:17.072Z,33.23
2023-06-12T15:39:48.063Z,34.57
2023-06-12T15:42:16.715Z,34.63
2023-06-12T15:44:46.582Z,33.91
2023-06-12T15:47:15.839Z,34.99
2023-06-12T15:49:47.170Z,34.08
2023-06-12T15:52:15.155Z,34.36
2023-06-12T15:54:43.617Z,34.54
2023-06-12T15:57:11.717Z,33.96
2023-06-12T15:59:40.833Z,33.29
2023-06-12T16:02:09.243Z,33.69
2023-06-12T16:04:37.363Z,34.16
2023-06-12T16:07:08.168Z,33.95
2023-06-12T16:09:37.850Z,35.05
2023-06-12T16:12:06.577Z,34.15
2023-06-12T16:14:34.320Z,34.56
2023-06-12T16:17:03.854Z,34.31
2023-06-12T16:19:32.184Z,35.16
2023-06-12T16:22:00.205Z,33.87
2023-06-12T16:24:30.491Z,34.08
2023-06-12T16:26:59.213Z,35.00
2023-06-12T16:29:28.378Z,34.69
2023-06-12T16:31:56.800Z,33.74
2023-06-12T16:34:25.854Z,33.38
2023-06-12T16:36:53.821Z,34.47
2023-06-12T16:39:22.290Z,35.28
2023-06-12T16:41:51.747Z,32.88
2023-06-12T16:44:20.585Z,32.02
2023-06-12T16:46:48.623Z,32.96
2023-06-12T16:49:17.195Z,33.12
2023-06-12T16:51:45.624Z,32.60
2023-06-12T16:54:14.588Z,32.15
2023-06-12T16:56:43.057Z,32.81
2023-06-12T16:59:12.911Z,32.97
2023-06-12T17:01:41.153Z,34.16
2023-06-12T17:04:09.330Z,33.43
2023-06-12T17:06:38.202Z,33.56
2023-06-12T17:09:08.566Z,33.95
2023-06-12T17:11:36.919Z,33.35
2023-06-12T17:14:05.594Z,33.16
2023-06-12T17:16:35.010Z,33.96
2023-06-12T17:19:03.156Z,34.47
2023-06-12T17:21:31.733Z,34.39
2023-06-12T17:23:59.657Z,33.58
2023-06-12T17:26:27.649Z,34.05
2023-06-12T17:28:55.993Z,32.94
2023-06-12T17:31:24.047Z,32.39
2023-06-12T17:33:54.350Z,32.95
2023-06-12T17:36:22.341Z,34.14
2023-06-12T17:38:51.018Z,33.03
2023-06-12T17:41:19.104Z,32.82
2023-06-12T17:43:47.162Z,31.50
2023-06-12T17:46:17.116Z,32.86
2023-06-12T17:48:47.895Z,31.83
2023-06-12T17:51:17.882Z,31.27
2023-06-12T17:53:46.872Z,31.28
2023-06-12T17:56:15.557Z,32.12
2023-06-12T17:58:44.676Z,31.84
2023-06-12T18:01:14.143Z,31.57
2023-06-12T18:03:42.207Z,31.38
2023-06-12T18:06:11.228Z,31.13
2023-06-12T18:08:40.596Z,31.74
2023-06-12T18:11:09.511Z,30.58
2023-06-12T18:13:37.476Z,30.70
2023-06-12T18:16:06.622Z,31.20
2023-06-12T18:18:35.064Z,29.92
2023-06-12T18:21:03.156Z,29.26
2023-06-12T18:23:31.229Z,29.09
2023-06-12T18:26:01.115Z,28.76
2023-06-12T18:28:33.285Z,27.53
2023-06-12T18:31:02.057Z,26.68
2023-06-12T18:33:31.347Z,27.08
2023-06-12T18:35:59.445Z,27.65
2023-06-12T18:38:27.840Z,28.16
2023-06-12T18:40:56.084Z,27.83
2023-06-12T18:43:25.639Z,28.19
2023-06-12T18:45:53.673Z,27.31
2023-06-12T18:48:21.759Z,26.76
2023-06-12T18:50:50.730Z,25.86
2023-06-12T18:53:18.707Z,25.01
2023-06-12T18:55:49.178Z,25.09
2023-06-12T18:58:18.323Z,25.10
2023-06-12T19:00:47.689Z,25.13
2023-06-12T19:03:15.603Z,25.30
2023-06-12T19:05:43.576Z,25.35
2023-06-12T19:08:11.857Z,25.11
2023-06-12T19:10:39.854Z,25.13
2023-06-12T19:13:10.484Z,24.93
2023-06-12T19:15:38.969Z,24.43
2023-06-12T19:18:09.161Z,24.10
2023-06-12T19:20:38.351Z,23.57
2023-06-12T19:23:06.401Z,23.10
2023-06-12T19:25:34.386Z,22.63
2023-06-12T19:28:02.367Z,22.47
2023-06-12T19:30:30.349Z,22.34
2023-06-12T19:32:58.952Z,22.16
2023-06-12T19:35:28.769Z,22.02
2023-06-12T19:37:56.697Z,21.73
2023-06-12T19:40:24.664Z,21.74
2023-06-12T19:42:52.961Z,21.80
2023-06-12T19:45:24.066Z,21.65
2023-06-12T19:47:53.996Z,21.50
2023-06-12T19:50:22.668Z,21.32
2023-06-12T19:52:52.500Z,21.17
2023-06-12T19:55:21.792Z,21.06
2023-06-12T19:57:50.393Z,20.94
2023-06-12T20:00:19.024Z,20.82
2023-06-12T20:02:47.054Z,20.78
2023-06-12T20:05:15.538Z,20.58
2023-06-12T20:07:43.686Z,20.37
2023-06-12T20:10:15.918Z,20.23
2023-06-12T20:12:44.052Z,20.00
2023-06-12T20:15:12.726Z,20.07
2023-06-12T20:17:41.617Z,19.90
2023-06-12T20:20:09.949Z,19.80
2023-06-12T20:22:37.953Z,19.78
2023-06-12T20:25:07.841Z,19.92
2023-06-12T20:27:45.381Z,19.68
2023-06-12T20:30:14.186Z,19.51
2023-06-12T20:32:42.365Z,19.12
2023-06-12T20:35:11.264Z,19.00
2023-06-12T20:37:39.424Z,18.83
2023-06-12T20:40:08.332Z,19.00
2023-06-12T20:42:36.266Z,18.84
2023-06-12T20:45:07.571Z,18.82
2023-06-12T20:47:35.868Z,18.72
2023-06-12T20:50:04.043Z,18.57
2023-06-12T20:52:33.098Z,18.44
2023-06-12T20:55:01.057Z,18.44
2023-06-12T20:57:31.303Z,18.47
2023-06-12T20:59:59.815Z,18.67
2023-06-12T21:02:30.715Z,18.60
2023-06-12T21:04:59.926Z,18.67
2023-06-12T21:07:27.923Z,18.38
2023-06-12T21:09:56.325Z,18.35
2023-06-12T21:12:24.308Z,18.36
2023-06-12T21:14:52.969Z,18.43
2023-06-12T21:17:21.487Z,18.20
2023-06-12T21:19:51.443Z,18.05
2023-06-12T21:22:38.817Z,18.22
2023-06-12T21:25:08.472Z,18.04
2023-06-12T21:27:36.888Z,18.10
2023-06-12T21:30:07.217Z,18.22
2023-06-12T21:32:37.312Z,17.97
2023-06-12T21:35:08.645Z,17.90
2023-06-12T21:37:37.386Z,17.78
2023-06-12T21:40:06.581Z,17.75
2023-06-12T21:42:35.826Z,17.73
2023-06-12T21:45:04.061Z,17.74
2023-06-12T21:47:33.072Z,17.75
2023-06-12T21:50:01.119Z,17.82
2023-06-12T21:52:30.490Z,17.55
2023-06-12T21:54:58.653Z,17.60
2023-06-12T21:57:27.530Z,17.45
2023-06-12T21:59:55.479Z,17.37
2023-06-12T22:02:25.105Z,17.22
2023-06-12T22:04:53.622Z,17.32
2023-06-12T22:07:22.176Z,17.20
2023-06-12T22:09:51.918Z,17.06
2023-06-12T22:12:20.603Z,17.26
2023-06-12T22:14:48.609Z,17.23
2023-06-12T22:17:17.219Z,17.22
2023-06-12T22:19:45.265Z,17.18
2023-06-12T22:22:13.406Z,16.81
2023-06-12T22:24:41.964Z,16.79
2023-06-12T22:27:11.758Z,16.41
2023-06-12T22:29:39.713Z,16.41
2023-06-12T22:32:10.025Z,16.62
2023-06-12T22:34:38.102Z,16.67
2023-06-12T22:37:06.224Z,16.71
2023-06-12T22:39:36.686Z,16.76
2023-06-12T22:42:05.258Z,16.75
2023-06-12T22:44:34.545Z,16.73
2023-06-12T22:47:03.017Z,16.49
2023-06-12T22:49:31.113Z,16.47
2023-06-12T22:51:59.623Z,16.52
2023-06-12T22:54:28.050Z,16.29
2023-06-12T22:56:56.101Z,16.37
2023-06-12T22:59:24.072Z,16.36
2023-06-12T23:01:54.396Z,16.30
2023-06-12T23:04:22.306Z,15.89
2023-06-12T23:06:50.713Z,16.07
2023-06-12T23:09:19.597Z,16.01
2023-06-12T23:11:47.570Z,16.17
2023-06-12T23:14:16.075Z,15.91
2023-06-12T23:16:45.020Z,16.02
2023-06-12T23:19:14.630Z,15.90
2023-06-12T23:21:43.244Z,15.48
2023-06-12T23:24:13.525Z,15.54
2023-06-12T23:26:42.193Z,15.45
2023-06-12T23:29:10.639Z,15.27
2023-06-12T23:31:39.029Z,15.18
2023-06-12T23:34:07.283Z,15.11
2023-06-12T23:36:40.965Z,15.06
2023-06-12T23:39:09.547Z,15.18
2023-06-12T23:41:38.033Z,15.14
2023-06-12T23:44:07.357Z,15.02
2023-06-12T23:46:35.398Z,14.89
2023-06-12T23:49:04.074Z,14.87
2023-06-12T23:51:33.223Z,14.64
2023-06-12T23:54:03.676Z,14.80
2023-06-12T23:56:32.147Z,14.80
2023-06-12T23:59:00.197Z,14.81
